In Rescue
 
Open Full Screen Window  High Contrast Mode
Wind Gusting 00 knots
07
November 29, 2022 9:17 AM EST
Weather Information
Wind Direction
  150 °
Wind Speed
  07 kt (8 mph)
Wind Gust
  00 kt (0 mph)
Altimeter
29.89 in
Visibility
10 SM
Temperature
03° C
37° F
Dewpoint
00° C
32° F
Humidity
81%
Sky Condition
Clear
VFR

METAR KCVX 291417Z AUTO 15007KT 10SM CLR 03/00 A2989 RMK AO2 T00260000

FAA Disclaimer: The data displayed is for advisory purposes only and is not to be used for flight planning or operations.